Time;durP1;ratioP1;P1;durP2;ratioP2;P2;SDS_P1;SDS_P2;PMS_P1;PMS_P2;Temp;Humidity;BMP_temperature;BMP_pressure;BME280_temperature;BME280_humidity;BME280_pressure;Samples;Min_cycle;Max_cycle;Signal;HPM_P1;HPM_P2
2021/01/18 00:00:08;;;;;;;31.58;17.63;;;-2.40;99.90;;;;;;5115681;28;20094;-78
2021/01/18 00:02:33;;;;;;;32.45;16.02;;;-2.50;99.90;;;;;;5116482;28;20023;-82
2021/01/18 00:04:59;;;;;;;30.17;16.02;;;;;;;;;;5113550;28;20024;-77
2021/01/18 00:07:25;;;;;;;33.75;16.63;;;-2.50;99.90;;;;;;5115161;27;20030;-78
2021/01/18 00:09:51;;;;;;;30.95;15.18;;;-2.50;99.90;;;;;;5121700;28;20034;-78
2021/01/18 00:12:16;;;;;;;30.55;16.27;;;-2.50;99.90;;;;;;5120616;28;20026;-78
2021/01/18 00:14:42;;;;;;;31.73;15.68;;;-2.50;99.90;;;;;;5115400;28;20035;-78
2021/01/18 00:17:07;;;;;;;33.00;17.33;;;-2.50;99.90;;;;;;5114415;28;20034;-79
2021/01/18 00:19:33;;;;;;;30.73;15.38;;;-2.50;99.90;;;;;;5114054;28;20043;-79
2021/01/18 00:21:58;;;;;;;31.13;15.70;;;-2.50;99.90;;;;;;5114586;28;20042;-78
2021/01/18 00:24:24;;;;;;;30.65;16.67;;;-2.50;99.90;;;;;;5116952;28;20067;-78
2021/01/18 00:26:49;;;;;;;24.25;12.95;;;-2.60;99.90;;;;;;5117672;28;20030;-77
2021/01/18 00:29:15;;;;;;;28.67;16.35;;;-2.60;99.90;;;;;;5117922;28;20173;-78
2021/01/18 00:31:44;;;;;;;28.33;15.25;;;-2.70;99.90;;;;;;5115258;28;20023;-78
2021/01/18 00:34:10;;;;;;;32.17;16.60;;;-2.70;99.90;;;;;;5116496;28;20035;-80
2021/01/18 00:36:35;;;;;;;34.03;18.23;;;-2.70;99.90;;;;;;5112908;28;20023;-78
2021/01/18 00:39:01;;;;;;;38.13;17.15;;;-2.90;99.90;;;;;;5117641;28;20076;-79
2021/01/18 00:41:26;;;;;;;31.25;16.40;;;-2.80;99.90;;;;;;5115127;28;20955;-78
2021/01/18 00:43:52;;;;;;;32.85;17.65;;;-2.80;99.90;;;;;;5115958;28;20027;-78
2021/01/18 00:46:18;;;;;;;33.03;16.92;;;-2.80;99.90;;;;;;5113716;27;20118;-78
2021/01/18 00:48:43;;;;;;;34.97;16.05;;;-2.80;99.90;;;;;;5119003;27;21535;-78
2021/01/18 00:51:09;;;;;;;31.58;16.23;;;-2.90;99.90;;;;;;5118784;27;20046;-79
2021/01/18 00:53:36;;;;;;;34.33;17.60;;;-2.90;99.90;;;;;;5123828;27;20455;-78
2021/01/18 00:56:02;;;;;;;34.17;17.42;;;-2.90;99.90;;;;;;5117217;27;20034;-78
2021/01/18 00:58:27;;;;;;;37.17;17.60;;;-3.00;99.90;;;;;;5118169;27;20031;-78
2021/01/18 01:00:54;;;;;;;28.45;15.50;;;-2.90;99.90;;;;;;5122786;27;20559;-78
2021/01/18 01:03:20;;;;;;;33.42;17.15;;;-2.90;99.90;;;;;;5121957;27;20417;-78
2021/01/18 01:05:45;;;;;;;29.98;17.23;;;-2.90;99.90;;;;;;5126972;27;20032;-79
2021/01/18 01:08:10;;;;;;;32.67;16.90;;;-2.90;99.90;;;;;;5114333;27;20037;-78
2021/01/18 01:10:37;;;;;;;35.53;17.63;;;-2.90;99.90;;;;;;5128049;27;20027;-78
2021/01/18 01:13:05;;;;;;;34.55;17.33;;;-2.90;99.90;;;;;;5134485;27;20031;-79
2021/01/18 01:15:31;;;;;;;31.17;16.88;;;-2.90;99.90;;;;;;5124493;27;20079;-78
2021/01/18 01:17:57;;;;;;;32.53;16.38;;;-3.00;99.90;;;;;;5128253;27;20027;-78
2021/01/18 01:20:24;;;;;;;31.88;17.10;;;-2.90;99.90;;;;;;5128441;27;20050;-79
2021/01/18 01:22:50;;;;;;;32.00;16.73;;;-3.00;99.90;;;;;;5123007;27;20047;-79
2021/01/18 01:25:17;;;;;;;31.27;17.25;;;-3.00;99.90;;;;;;5129053;27;20016;-79
2021/01/18 01:27:44;;;;;;;35.13;17.05;;;-2.90;99.90;;;;;;5128863;27;20037;-82
2021/01/18 01:30:29;;;;;;;32.67;16.55;;;-3.00;99.90;;;;;;5121223;27;20525;-78
2021/01/18 01:32:55;;;;;;;32.75;17.10;;;-3.00;99.90;;;;;;5124235;27;20050;-78
2021/01/18 01:35:25;;;;;;;33.47;17.77;;;-3.00;99.90;;;;;;5127131;27;20054;-79
2021/01/18 01:37:52;;;;;;;36.15;16.15;;;-3.00;99.90;;;;;;5130101;27;20030;-78
2021/01/18 01:40:18;;;;;;;35.22;16.30;;;-3.10;99.90;;;;;;5130997;27;20416;-78
2021/01/18 01:42:43;;;;;;;29.48;16.08;;;-3.10;99.90;;;;;;5134937;27;20031;-80
2021/01/18 01:45:13;;;;;;;28.88;15.30;;;-3.10;99.90;;;;;;5134010;27;20075;-80
2021/01/18 01:47:46;;;;;;;29.65;16.05;;;-3.10;99.90;;;;;;5146123;27;20034;-78
2021/01/18 01:50:17;;;;;;;36.70;17.63;;;-3.10;99.90;;;;;;5142739;27;20023;-78
2021/01/18 01:52:51;;;;;;;32.78;17.05;;;-3.10;99.90;;;;;;5131114;27;20057;-79
2021/01/18 01:55:29;;;;;;;49.83;24.48;;;-3.10;99.90;;;;;;5126140;27;20482;-78
2021/01/18 01:57:56;;;;;;;31.98;16.83;;;-3.20;99.90;;;;;;5122499;27;20031;-78
2021/01/18 02:00:23;;;;;;;32.70;16.83;;;-3.20;99.90;;;;;;5126770;27;20076;-78
2021/01/18 02:02:52;;;;;;;32.03;16.65;;;-3.20;99.90;;;;;;5124034;27;20038;-78
2021/01/18 02:05:18;;;;;;;34.33;17.50;;;-3.20;99.90;;;;;;5128756;27;20532;-78
2021/01/18 02:07:43;;;;;;;40.08;18.92;;;-3.20;99.90;;;;;;5130861;27;20073;-78
2021/01/18 02:10:10;;;;;;;29.75;16.85;;;-3.10;99.90;;;;;;5130702;27;20022;-77
2021/01/18 02:12:36;;;;;;;30.25;16.67;;;;;;;;;;5130565;27;20031;-78
2021/01/18 02:15:13;;;;;;;36.22;17.98;;;-3.20;99.90;;;;;;5130669;27;20030;-78
2021/01/18 02:18:19;;;;;;;34.95;18.17;;;-3.30;99.90;;;;;;5122844;27;20122;-78
2021/01/18 02:20:56;;;;;;;32.60;17.50;;;-3.30;99.90;;;;;;5097340;27;20046;-77
2021/01/18 02:23:41;;;;;;;34.22;17.65;;;-3.30;99.90;;;;;;5124181;27;20024;-79
2021/01/18 02:26:43;;;;;;;34.25;18.17;;;-3.30;99.90;;;;;;5131454;27;20027;-78
2021/01/18 02:29:23;;;;;;;34.67;17.15;;;-3.30;99.90;;;;;;5138440;27;20364;-78
2021/01/18 02:32:23;;;;;;;37.00;17.98;;;-3.20;99.90;;;;;;5129324;27;20019;-79
2021/01/18 02:35:18;;;;;;;33.55;17.30;;;-3.20;99.90;;;;;;5129351;27;20061;-78
2021/01/18 02:38:06;;;;;;;37.28;18.75;;;-3.30;99.90;;;;;;5125984;27;20565;-78
2021/01/18 02:40:56;;;;;;;37.45;18.38;;;-3.30;99.90;;;;;;5124100;27;20046;-78
2021/01/18 02:43:30;;;;;;;38.58;18.17;;;-3.30;99.90;;;;;;5125390;27;20023;-79
2021/01/18 02:45:58;;;;;;;38.88;18.40;;;-3.30;99.90;;;;;;5122717;27;20659;-78
2021/01/18 02:48:24;;;;;;;37.45;18.85;;;-3.30;99.90;;;;;;5125456;27;20478;-79
2021/01/18 02:50:52;;;;;;;39.40;17.92;;;-3.20;99.90;;;;;;5128152;27;20370;-78
2021/01/18 02:53:18;;;;;;;34.80;17.92;;;;;;;;;;5132304;27;20033;-78
2021/01/18 02:55:44;;;;;;;39.65;18.35;;;;;;;;;;5127950;27;20034;-77
2021/01/18 02:58:11;;;;;;;36.97;18.92;;;-3.30;99.90;;;;;;5124596;27;20466;-78
2021/01/18 03:00:52;;;;;;;37.65;18.85;;;-3.30;99.90;;;;;;5127278;27;20043;-80
2021/01/18 03:03:33;;;;;;;41.40;18.85;;;-3.20;99.90;;;;;;5127178;27;20023;-78
2021/01/18 03:06:29;;;;;;;38.05;19.35;;;-3.20;99.90;;;;;;5124620;27;20102;-77
2021/01/18 03:09:15;;;;;;;37.45;19.10;;;-3.10;99.90;;;;;;5123746;27;20546;-78
2021/01/18 03:11:45;;;;;;;37.17;19.13;;;-3.00;99.90;;;;;;5124336;27;20038;-78
2021/01/18 03:14:16;;;;;;;41.70;20.27;;;-3.00;99.90;;;;;;5126918;27;20049;-78
2021/01/18 03:16:49;;;;;;;43.90;21.27;;;-3.00;99.90;;;;;;5135911;27;20041;-79
2021/01/18 03:19:18;;;;;;;42.15;20.17;;;-2.90;99.90;;;;;;5129151;27;20027;-78
2021/01/18 03:21:45;;;;;;;37.30;18.80;;;-2.90;99.90;;;;;;5120411;27;20058;-78
2021/01/18 03:24:10;;;;;;;40.38;19.40;;;-3.00;99.90;;;;;;5125193;27;20379;-78
2021/01/18 03:26:36;;;;;;;35.22;18.08;;;-2.90;99.90;;;;;;5130333;27;20041;-79
2021/01/18 03:29:01;;;;;;;36.85;17.92;;;-3.00;99.90;;;;;;5125194;27;20033;-79
2021/01/18 03:31:27;;;;;;;36.15;17.48;;;-2.90;99.90;;;;;;5129257;27;20074;-79
2021/01/18 03:33:52;;;;;;;38.80;18.50;;;-2.90;99.90;;;;;;5140158;27;20049;-79
2021/01/18 03:36:21;;;;;;;43.03;20.08;;;-2.90;99.90;;;;;;5136629;27;20019;-78
2021/01/18 03:38:46;;;;;;;41.15;19.27;;;-2.90;99.90;;;;;;5134711;27;20035;-78
2021/01/18 03:41:13;;;;;;;40.28;20.05;;;-3.00;99.90;;;;;;5134152;27;20052;-79
2021/01/18 03:43:38;;;;;;;38.00;18.80;;;-3.10;99.90;;;;;;5126961;27;20035;-79
2021/01/18 03:46:06;;;;;;;35.03;18.88;;;-3.10;99.90;;;;;;5136247;27;20034;-78
2021/01/18 03:48:31;;;;;;;37.22;18.17;;;-3.10;99.90;;;;;;5127116;27;20480;-79
2021/01/18 03:50:57;;;;;;;44.55;19.52;;;-3.10;99.90;;;;;;5132260;27;20027;-79
2021/01/18 03:53:22;;;;;;;36.75;18.45;;;-3.10;99.90;;;;;;5128118;27;20046;-77
2021/01/18 03:55:48;;;;;;;37.80;18.35;;;-3.10;99.90;;;;;;5128416;27;20102;-77
2021/01/18 03:58:14;;;;;;;35.30;17.70;;;-3.20;99.90;;;;;;5131271;27;20031;-78
2021/01/18 04:00:40;;;;;;;43.08;20.73;;;-3.20;99.90;;;;;;5132107;28;20051;-78
2021/01/18 04:03:05;;;;;;;40.25;18.40;;;-3.30;99.90;;;;;;5131223;27;20039;-78
2021/01/18 04:05:31;;;;;;;34.78;17.42;;;-3.20;99.90;;;;;;5125358;28;20533;-78
2021/01/18 04:07:57;;;;;;;38.65;20.35;;;-3.20;99.90;;;;;;5128619;28;20027;-78
2021/01/18 04:10:25;;;;;;;34.95;19.17;;;-3.10;99.90;;;;;;5126725;27;20031;-77
2021/01/18 04:12:51;;;;;;;35.75;18.70;;;-3.00;99.90;;;;;;5128455;27;20023;-78
2021/01/18 04:15:19;;;;;;;36.88;18.60;;;-3.00;99.90;;;;;;5126773;28;20080;-79
2021/01/18 04:17:47;;;;;;;35.75;17.85;;;-3.10;99.90;;;;;;5126248;28;20035;-78
2021/01/18 04:20:13;;;;;;;39.38;21.25;;;-3.10;99.90;;;;;;5128699;27;20042;-81
2021/01/18 04:22:49;;;;;;;38.55;18.65;;;-3.10;99.90;;;;;;5128548;27;20031;-78
2021/01/18 04:25:16;;;;;;;36.83;18.48;;;-3.10;99.90;;;;;;5129032;27;20481;-78
2021/01/18 04:28:04;;;;;;;37.67;19.48;;;-3.20;99.90;;;;;;5134254;27;20766;-79
2021/01/18 04:30:36;;;;;;;42.53;21.08;;;-3.10;99.90;;;;;;5125709;27;20048;-79
2021/01/18 04:33:03;;;;;;;;;;;-3.00;99.90;;;;;;5131050;27;20344;-78
2021/01/18 04:35:30;;;;;;;42.80;20.08;;;-3.00;99.90;;;;;;5128049;27;19964;-78
2021/01/18 04:37:56;;;;;;;41.60;19.27;;;-3.00;99.90;;;;;;5124691;27;20040;-78
2021/01/18 04:40:25;;;;;;;36.92;19.77;;;-2.90;99.90;;;;;;5126986;27;20031;-79
2021/01/18 04:42:50;;;;;;;32.08;17.80;;;-2.90;99.90;;;;;;5125446;27;20027;-78
2021/01/18 04:45:18;;;;;;;38.00;19.85;;;-3.00;99.90;;;;;;5126055;27;20437;-78
2021/01/18 04:47:45;;;;;;;36.88;18.50;;;-3.00;99.90;;;;;;5126710;27;20076;-78
2021/01/18 04:50:17;;;;;;;37.40;18.92;;;-2.90;99.90;;;;;;5126872;27;20444;-79
2021/01/18 04:52:49;;;;;;;33.15;18.23;;;-2.90;99.90;;;;;;5127702;27;20031;-78
2021/01/18 04:55:42;;;;;;;38.85;20.92;;;-3.00;99.90;;;;;;5140526;27;20027;-80
2021/01/18 04:58:11;;;;;;;36.42;18.85;;;-3.00;99.90;;;;;;5149503;27;20032;-78
2021/01/18 05:00:41;;;;;;;37.50;18.60;;;-3.00;99.90;;;;;;5142733;27;20047;-78
2021/01/18 05:03:08;;;;;;;38.58;19.83;;;-3.00;99.90;;;;;;5136980;27;20047;-78
2021/01/18 05:05:52;;;;;;;37.58;18.42;;;-3.00;99.90;;;;;;5133393;27;20034;-77
2021/01/18 05:08:56;;;;;;;37.58;19.83;;;-3.00;99.90;;;;;;5133097;27;20031;-78
2021/01/18 05:11:22;;;;;;;36.35;18.92;;;-2.80;99.90;;;;;;5112784;27;20031;-78
2021/01/18 05:13:47;;;;;;;37.65;18.15;;;-2.80;99.90;;;;;;5131540;27;20034;-78
2021/01/18 05:16:13;;;;;;;36.10;18.45;;;-2.80;99.90;;;;;;5133289;27;20031;-79
2021/01/18 05:18:41;;;;;;;38.50;19.92;;;-2.80;99.90;;;;;;5131302;27;20064;-78
2021/01/18 05:21:08;;;;;;;35.33;18.33;;;-2.80;99.90;;;;;;5129056;27;20570;-79
2021/01/18 05:23:45;;;;;;;36.42;19.38;;;-2.90;99.90;;;;;;5124833;27;20020;-79
2021/01/18 05:26:17;;;;;;;38.47;19.17;;;-2.90;99.90;;;;;;5123762;27;20106;-78
2021/01/18 05:28:44;;;;;;;35.28;18.85;;;-2.80;99.90;;;;;;5125595;27;20011;-78
2021/01/18 05:31:29;;;;;;;40.63;20.08;;;-2.80;99.90;;;;;;5129456;27;20066;-77
2021/01/18 05:34:02;;;;;;;35.83;18.83;;;-2.70;99.90;;;;;;5125636;27;20478;-79
2021/01/18 05:36:41;;;;;;;35.67;17.85;;;-2.80;99.90;;;;;;5119754;27;20522;-79
2021/01/18 05:39:21;;;;;;;39.65;18.75;;;-2.80;99.90;;;;;;5129953;27;20075;-78
2021/01/18 05:41:49;;;;;;;36.42;19.15;;;-2.80;99.90;;;;;;5127557;27;20076;-78
2021/01/18 05:44:16;;;;;;;37.78;19.83;;;-2.90;99.90;;;;;;5136327;27;20110;-78
2021/01/18 05:46:43;;;;;;;37.00;20.48;;;-2.80;99.90;;;;;;5135387;27;20028;-77
2021/01/18 05:49:19;;;;;;;38.03;19.02;;;-2.90;99.90;;;;;;5127721;27;20052;-79
2021/01/18 05:51:52;;;;;;;37.00;19.08;;;-2.80;99.90;;;;;;5132792;27;20031;-81
2021/01/18 05:54:23;;;;;;;40.35;19.50;;;-2.70;99.90;;;;;;5138599;27;20020;-79
2021/01/18 05:56:52;;;;;;;35.65;18.67;;;-2.70;99.90;;;;;;5141839;27;20433;-81
2021/01/18 05:59:22;;;;;;;35.03;20.27;;;-2.60;99.90;;;;;;5143206;27;20038;-82
2021/01/18 06:01:50;;;;;;;34.72;17.80;;;-2.60;99.90;;;;;;5139745;27;20067;-83
2021/01/18 06:04:20;;;;;;;46.28;20.42;;;-2.60;99.90;;;;;;5150482;27;20046;-83
2021/01/18 06:07:01;;;;;;;37.10;19.23;;;-2.60;99.90;;;;;;5148487;27;20027;-83
2021/01/18 06:09:48;;;;;;;40.33;19.27;;;-2.60;99.90;;;;;;5145487;27;20091;-81
2021/01/18 06:12:24;;;;;;;33.65;17.92;;;-2.60;99.90;;;;;;5150483;27;20052;-83
2021/01/18 06:15:06;;;;;;;41.00;20.25;;;-2.60;99.90;;;;;;5150744;27;20028;-83
2021/01/18 06:17:32;;;;;;;36.25;17.95;;;-2.70;99.90;;;;;;5142938;27;19999;-82
2021/01/18 06:20:02;;;;;;;43.70;19.70;;;-2.70;99.90;;;;;;5151181;27;20106;-84
2021/01/18 06:22:29;;;;;;;39.08;19.33;;;-2.60;99.90;;;;;;5143927;27;20031;-81
2021/01/18 06:24:56;;;;;;;41.28;20.88;;;-2.50;99.90;;;;;;5149701;27;20091;-82
2021/01/18 06:27:33;;;;;;;38.67;19.63;;;-2.50;99.90;;;;;;5131795;27;20016;-82
2021/01/18 06:29:59;;;;;;;40.42;18.77;;;-2.50;99.90;;;;;;5134211;27;20024;-80
2021/01/18 06:32:30;;;;;;;34.55;19.30;;;-2.50;99.90;;;;;;5129315;27;20038;-81
2021/01/18 06:35:00;;;;;;;44.75;21.40;;;-2.50;99.90;;;;;;5133638;27;20277;-81
2021/01/18 06:37:31;;;;;;;36.42;18.70;;;-2.50;99.90;;;;;;5134394;27;20095;-81
2021/01/18 06:39:58;;;;;;;37.58;20.15;;;-2.40;99.90;;;;;;5130911;27;20077;-82
2021/01/18 06:42:28;;;;;;;40.97;20.13;;;-2.40;99.90;;;;;;5133507;27;20100;-80
2021/01/18 06:44:54;;;;;;;41.33;20.92;;;-2.40;99.90;;;;;;5131585;27;20363;-81
2021/01/18 06:47:24;;;;;;;35.40;19.17;;;-2.40;99.90;;;;;;5141753;27;20049;-80
2021/01/18 06:49:54;;;;;;;42.25;21.42;;;-2.40;99.90;;;;;;5135146;27;20026;-81
2021/01/18 06:52:23;;;;;;;36.38;19.67;;;-2.50;99.90;;;;;;5145164;27;20019;-81
2021/01/18 06:55:12;;;;;;;42.60;20.35;;;-2.50;99.90;;;;;;5143662;27;20023;-82
2021/01/18 06:57:46;;;;;;;35.70;19.08;;;-2.50;99.90;;;;;;5142569;27;20079;-83
2021/01/18 07:00:14;;;;;;;37.33;19.75;;;-2.40;99.90;;;;;;5145087;27;20050;-82
2021/01/18 07:02:57;;;;;;;32.92;18.25;;;-2.40;99.90;;;;;;5144482;27;20031;-82
2021/01/18 07:05:45;;;;;;;38.67;19.80;;;-2.40;99.90;;;;;;5141975;27;20435;-82
2021/01/18 07:08:16;;;;;;;40.03;19.75;;;-2.50;99.90;;;;;;5134222;27;20027;-83
2021/01/18 07:10:47;;;;;;;35.60;19.58;;;-2.50;99.90;;;;;;5147521;27;20024;-83
2021/01/18 07:13:20;;;;;;;35.95;17.73;;;-2.40;99.90;;;;;;5128402;27;20042;-83
2021/01/18 07:15:48;;;;;;;38.45;18.85;;;-2.50;99.90;;;;;;5131654;27;20036;-83
2021/01/18 07:18:14;;;;;;;38.63;21.20;;;-2.50;99.90;;;;;;5132571;27;20050;-82
2021/01/18 07:20:45;;;;;;;41.38;22.40;;;-2.50;99.90;;;;;;5127625;27;20049;-76
2021/01/18 07:23:11;;;;;;;39.45;19.90;;;-2.50;99.90;;;;;;5122906;27;20019;-77
2021/01/18 07:25:38;;;;;;;40.90;20.15;;;-2.40;99.90;;;;;;5128156;27;20038;-76
2021/01/18 07:28:06;;;;;;;38.67;18.75;;;-2.40;99.90;;;;;;5121032;27;20023;-76
2021/01/18 07:30:32;;;;;;;36.20;19.77;;;-2.50;99.90;;;;;;5125363;27;20039;-76
2021/01/18 07:33:08;;;;;;;38.58;18.88;;;-2.50;99.90;;;;;;5124351;27;20082;-75
2021/01/18 07:35:35;;;;;;;41.88;21.10;;;-2.50;99.90;;;;;;5126278;27;20081;-75
2021/01/18 07:38:14;;;;;;;39.65;20.25;;;-2.40;99.90;;;;;;5127111;27;20019;-75
2021/01/18 07:41:01;;;;;;;37.63;20.52;;;-2.40;99.90;;;;;;5124743;27;20054;-75
2021/01/18 07:43:34;;;;;;;39.50;20.00;;;-2.40;99.90;;;;;;5125858;27;20047;-79
2021/01/18 07:46:25;;;;;;;32.85;19.63;;;-2.30;99.90;;;;;;5125696;27;20087;-76
2021/01/18 07:49:12;;;;;;;38.30;20.40;;;-2.30;99.90;;;;;;5124087;27;20036;-79
2021/01/18 07:51:38;;;;;;;39.67;20.80;;;-2.30;99.90;;;;;;5127237;27;20031;-77
2021/01/18 07:54:03;;;;;;;36.75;20.40;;;-2.30;99.90;;;;;;5131700;27;20031;-75
2021/01/18 07:56:31;;;;;;;37.90;19.35;;;-2.30;99.90;;;;;;5139769;27;20022;-76
2021/01/18 07:58:58;;;;;;;37.05;19.58;;;-2.30;99.90;;;;;;5145635;27;20115;-78
2021/01/18 08:01:30;;;;;;;34.58;18.48;;;-2.20;99.90;;;;;;5143196;28;20106;-76
2021/01/18 08:04:19;;;;;;;42.45;21.80;;;-2.30;99.90;;;;;;5139859;27;20041;-78
2021/01/18 08:07:04;;;;;;;42.45;20.77;;;-2.30;99.90;;;;;;5134687;28;20031;-82
2021/01/18 08:09:34;;;;;;;38.28;19.65;;;-2.20;99.90;;;;;;5129717;28;20098;-76
2021/01/18 08:12:28;;;;;;;39.22;20.40;;;-2.20;99.90;;;;;;5129943;28;20061;-76
2021/01/18 08:14:54;;;;;;;39.65;20.33;;;-2.10;99.90;;;;;;5132299;27;20031;-76
2021/01/18 08:17:19;;;;;;;45.67;21.17;;;-2.10;99.90;;;;;;5128542;28;20038;-83
2021/01/18 08:20:06;;;;;;;39.40;20.20;;;-2.10;99.90;;;;;;5127873;28;20043;-76
2021/01/18 08:22:32;;;;;;;45.63;20.75;;;-2.00;99.90;;;;;;5129471;28;20051;-76
2021/01/18 08:24:58;;;;;;;41.00;21.15;;;-2.10;99.90;;;;;;5127752;27;20027;-75
2021/01/18 08:27:43;;;;;;;42.35;21.63;;;-2.10;99.90;;;;;;5124009;28;20038;-75
2021/01/18 08:30:30;;;;;;;40.55;20.85;;;-2.10;99.90;;;;;;5128885;28;20027;-75
2021/01/18 08:32:56;;;;;;;41.88;21.88;;;-2.10;99.90;;;;;;5124898;28;20059;-75
2021/01/18 08:35:28;;;;;;;42.85;21.40;;;-2.00;99.90;;;;;;5120502;28;20027;-75
2021/01/18 08:38:17;;;;;;;;;;;-1.90;99.90;;;;;;5121812;28;20042;-77
2021/01/18 08:40:45;;;;;;;42.22;20.60;;;-1.80;99.90;;;;;;5106786;28;19923;-75
2021/01/18 08:43:12;;;;;;;41.53;21.00;;;-1.80;99.90;;;;;;5127645;27;20019;-76
2021/01/18 08:45:39;;;;;;;42.78;21.00;;;-1.80;99.90;;;;;;5124118;27;20084;-75
2021/01/18 08:48:09;;;;;;;41.47;21.05;;;-1.80;99.90;;;;;;5124905;28;20040;-79
2021/01/18 08:50:54;;;;;;;38.58;20.80;;;-1.80;99.90;;;;;;5124055;28;20146;-75
2021/01/18 08:53:40;;;;;;;41.42;22.90;;;-1.70;99.90;;;;;;5121949;28;20493;-76
2021/01/18 08:56:06;;;;;;;38.97;21.52;;;-1.70;99.90;;;;;;5124161;28;20050;-78
2021/01/18 08:58:36;;;;;;;41.63;21.75;;;-1.80;99.90;;;;;;5125277;28;20080;-78
2021/01/18 09:01:03;;;;;;;37.97;20.08;;;-1.60;99.90;;;;;;5121535;28;20382;-76
2021/01/18 09:03:29;;;;;;;37.00;19.92;;;;;;;;;;5122701;28;20267;-76
2021/01/18 09:05:57;;;;;;;42.88;23.13;;;-1.40;99.90;;;;;;5124451;28;20073;-80
2021/01/18 09:08:27;;;;;;;37.40;21.23;;;-1.40;99.90;;;;;;5124140;27;20084;-75
2021/01/18 09:10:58;;;;;;;42.13;21.50;;;-1.40;99.90;;;;;;5126206;27;20060;-75
2021/01/18 09:13:26;;;;;;;38.75;21.50;;;-1.40;99.90;;;;;;5131606;27;20132;-76
2021/01/18 09:15:53;;;;;;;42.13;22.48;;;-1.50;99.90;;;;;;5130816;27;20061;-77
2021/01/18 09:18:21;;;;;;;44.70;23.15;;;-1.50;99.90;;;;;;5123491;27;20039;-74
2021/01/18 09:20:47;;;;;;;40.53;23.40;;;-1.50;99.90;;;;;;5124724;27;20048;-75
2021/01/18 09:23:13;;;;;;;42.78;21.10;;;-1.60;99.90;;;;;;5116103;27;20056;-74
2021/01/18 09:25:40;;;;;;;42.58;22.80;;;-1.60;99.90;;;;;;5122108;27;20024;-78
2021/01/18 09:28:15;;;;;;;40.05;21.95;;;-1.50;99.90;;;;;;5125490;27;20024;-74
2021/01/18 09:30:43;;;;;;;39.72;21.67;;;-1.30;99.90;;;;;;5120666;27;20597;-77
2021/01/18 09:33:12;;;;;;;38.90;20.92;;;-1.30;99.90;;;;;;5121312;27;20048;-74
2021/01/18 09:35:43;;;;;;;41.13;21.77;;;-1.30;99.90;;;;;;5120219;27;20042;-73
2021/01/18 09:38:10;;;;;;;41.03;21.83;;;-1.30;99.90;;;;;;5120157;27;20055;-74
2021/01/18 09:40:41;;;;;;;42.88;22.33;;;-1.40;99.90;;;;;;5113526;27;20027;-78
2021/01/18 09:43:08;;;;;;;43.67;23.25;;;-1.30;99.90;;;;;;5120039;27;20024;-74
2021/01/18 09:45:35;;;;;;;47.55;24.10;;;-1.30;99.90;;;;;;5121771;27;20031;-77
2021/01/18 09:48:06;;;;;;;41.38;23.20;;;-1.20;99.90;;;;;;5124342;27;20031;-79
2021/01/18 09:50:37;;;;;;;43.40;23.13;;;-1.00;99.90;;;;;;5120497;27;20034;-75
2021/01/18 09:53:08;;;;;;;45.88;23.88;;;-1.00;99.90;;;;;;5123322;27;20384;-75
2021/01/18 09:55:35;;;;;;;;;;;-1.00;99.90;;;;;;5121158;27;20077;-78
2021/01/18 09:58:23;;;;;;;43.53;21.92;;;-0.90;99.90;;;;;;5123292;27;19912;-79
2021/01/18 10:00:50;;;;;;;44.20;21.80;;;-0.90;99.90;;;;;;5121053;27;20150;-77
2021/01/18 10:03:27;;;;;;;47.75;26.88;;;-1.00;99.90;;;;;;5120167;27;20035;-74
2021/01/18 10:06:03;;;;;;;46.33;22.27;;;-1.00;99.90;;;;;;5115463;27;20050;-75
2021/01/18 10:08:30;;;;;;;39.15;22.95;;;-0.90;99.90;;;;;;5135709;27;20027;-74
2021/01/18 10:10:58;;;;;;;43.95;21.88;;;-0.90;99.90;;;;;;5115096;27;20032;-74
2021/01/18 10:13:25;;;;;;;43.05;23.08;;;-1.00;99.90;;;;;;5117038;27;20031;-76
2021/01/18 10:18:28;;;;;;;40.67;21.88;;;-0.90;99.90;;;;;;5012439;28;20058;-74
2021/01/18 10:20:54;;;;;;;;;;;-0.90;99.90;;;;;;5033657;28;20057;-77
2021/01/18 10:23:20;;;;;;;47.17;22.42;;;-0.90;99.90;;;;;;5039489;28;19917;-74
2021/01/18 10:25:46;;;;;;;41.95;22.05;;;-0.90;99.90;;;;;;5042040;28;20038;-74
2021/01/18 10:28:20;;;;;;;38.42;22.55;;;-0.80;99.90;;;;;;5035631;28;20040;-75
2021/01/18 10:30:46;;;;;;;45.60;25.17;;;-0.70;99.90;;;;;;5043974;28;20033;-73
2021/01/18 10:33:17;;;;;;;43.30;24.80;;;-0.70;99.90;;;;;;5042317;28;20040;-74
2021/01/18 10:35:44;;;;;;;42.55;24.42;;;-0.60;99.90;;;;;;5037299;28;20034;-75
2021/01/18 10:38:13;;;;;;;41.60;23.17;;;-0.60;99.90;;;;;;5040408;28;20120;-75
2021/01/18 10:40:39;;;;;;;56.30;30.55;;;-0.60;99.90;;;;;;5040409;28;20635;-75
2021/01/18 10:43:06;;;;;;;42.92;24.60;;;-0.70;99.90;;;;;;5041658;28;20112;-73
2021/01/18 10:45:38;;;;;;;45.90;24.13;;;-0.70;99.90;;;;;;5024807;28;20091;-78
2021/01/18 10:48:07;;;;;;;44.22;24.05;;;-0.70;99.90;;;;;;5045483;28;20049;-74
2021/01/18 10:50:32;;;;;;;42.63;25.77;;;-0.60;99.90;;;;;;5042566;28;20095;-74
2021/01/18 10:53:16;;;;;;;43.15;23.98;;;-0.60;99.90;;;;;;5038898;28;20028;-75
2021/01/18 10:55:42;;;;;;;40.35;22.58;;;;;;;;;;5038366;28;20033;-77
2021/01/18 10:58:07;;;;;;;46.40;25.63;;;-0.30;99.90;;;;;;5029799;28;20427;-76
2021/01/18 11:00:37;;;;;;;43.65;24.08;;;-0.20;99.90;;;;;;5024304;28;20053;-76
2021/01/18 11:03:04;;;;;;;45.58;24.75;;;-0.20;99.90;;;;;;5038622;28;20478;-74
2021/01/18 11:05:35;;;;;;;45.88;23.95;;;2.10;99.90;;;;;;5040686;28;20017;-77
2021/01/18 11:08:04;;;;;;;43.25;24.33;;;-0.20;99.90;;;;;;5022571;28;20538;-74
2021/01/18 11:10:30;;;;;;;43.45;23.92;;;0.00;99.90;;;;;;5038301;28;20376;-73
2021/01/18 11:12:59;;;;;;;42.40;24.25;;;-0.10;99.90;;;;;;5029585;28;20480;-73
2021/01/18 11:15:30;;;;;;;41.72;24.02;;;-0.10;99.90;;;;;;5037398;28;20055;-74
2021/01/18 11:17:56;;;;;;;47.05;25.75;;;-0.10;99.90;;;;;;5033825;28;20044;-73
2021/01/18 11:20:27;;;;;;;45.08;24.73;;;0.10;99.90;;;;;;5039820;28;20045;-73
2021/01/18 11:22:53;;;;;;;45.78;25.10;;;;;;;;;;5042979;28;20056;-78
2021/01/18 11:25:20;;;;;;;45.85;25.20;;;0.10;99.90;;;;;;5045393;28;20040;-75
2021/01/18 11:27:46;;;;;;;42.55;24.05;;;0.00;99.90;;;;;;5036941;28;20037;-75
2021/01/18 11:30:19;;;;;;;50.53;25.67;;;0.10;99.90;;;;;;5041056;28;20542;-75
2021/01/18 11:32:45;;;;;;;49.88;26.35;;;-0.10;99.90;;;;;;5038840;28;20124;-75
2021/01/18 11:35:12;;;;;;;43.85;25.63;;;0.10;99.90;;;;;;5018228;28;20115;-76
2021/01/18 11:37:39;;;;;;;43.30;24.63;;;0.00;99.90;;;;;;5023052;28;20547;-75
2021/01/18 11:40:07;;;;;;;48.67;26.40;;;-0.10;99.90;;;;;;5038960;28;20053;-76
2021/01/18 11:42:33;;;;;;;44.65;23.65;;;-0.10;99.90;;;;;;5032894;28;20519;-75
2021/01/18 11:45:00;;;;;;;46.97;25.45;;;0.00;99.90;;;;;;5039344;28;20048;-74
2021/01/18 11:47:36;;;;;;;43.45;24.63;;;0.10;99.90;;;;;;5036225;28;20036;-73
2021/01/18 11:50:02;;;;;;;49.38;25.17;;;0.10;99.90;;;;;;5034574;28;20438;-74
2021/01/18 11:52:28;;;;;;;47.65;26.85;;;0.00;99.90;;;;;;5021188;28;20537;-75
2021/01/18 11:54:53;;;;;;;49.45;26.65;;;-1.20;99.90;;;;;;5038528;28;20029;-74
2021/01/18 11:57:19;;;;;;;48.65;24.38;;;0.10;99.90;;;;;;5040559;28;20041;-74
2021/01/18 11:59:45;;;;;;;53.55;25.95;;;0.20;99.90;;;;;;5040720;28;20219;-75
2021/01/18 12:02:10;;;;;;;49.70;26.25;;;0.10;99.90;;;;;;5034642;28;20550;-74
2021/01/18 12:04:36;;;;;;;48.75;27.13;;;0.10;99.90;;;;;;5036359;28;20027;-73
2021/01/18 12:07:01;;;;;;;44.42;25.60;;;0.10;99.90;;;;;;5033133;28;20033;-77
2021/01/18 12:09:27;;;;;;;50.10;27.60;;;0.10;99.90;;;;;;5035599;28;20029;-74
2021/01/18 12:11:54;;;;;;;55.45;27.23;;;0.20;99.90;;;;;;5035090;28;20041;-73
2021/01/18 12:14:19;;;;;;;46.30;27.27;;;0.30;99.90;;;;;;5038399;28;20027;-74
2021/01/18 12:16:45;;;;;;;54.72;28.42;;;0.40;99.90;;;;;;5037465;28;20037;-75
2021/01/18 12:19:14;;;;;;;51.80;27.17;;;0.50;99.90;;;;;;5018846;28;20120;-75
2021/01/18 12:21:43;;;;;;;49.55;26.98;;;0.40;99.90;;;;;;5037893;28;20053;-75
2021/01/18 12:24:09;;;;;;;52.95;27.08;;;0.40;99.90;;;;;;5033204;28;20416;-75
2021/01/18 12:26:35;;;;;;;56.47;27.20;;;0.50;99.90;;;;;;5038152;28;20028;-77
2021/01/18 12:29:00;;;;;;;49.03;25.85;;;0.50;99.90;;;;;;5038382;28;20492;-74
2021/01/18 12:31:26;;;;;;;58.72;27.88;;;0.50;99.90;;;;;;5038494;28;20029;-74
2021/01/18 12:33:53;;;;;;;59.92;27.95;;;0.50;99.90;;;;;;5038024;28;20119;-75
2021/01/18 12:36:18;;;;;;;59.05;28.85;;;0.50;99.90;;;;;;5038605;28;20112;-75
2021/01/18 12:38:44;;;;;;;50.15;26.20;;;0.50;99.90;;;;;;5039395;28;20119;-78
2021/01/18 12:41:11;;;;;;;57.75;31.40;;;0.50;99.90;;;;;;5017089;28;20036;-75
2021/01/18 12:43:37;;;;;;;56.33;29.20;;;0.40;99.90;;;;;;5037365;28;20101;-74
2021/01/18 12:46:02;;;;;;;58.78;29.67;;;0.50;99.90;;;;;;5042176;28;20109;-76
2021/01/18 12:48:28;;;;;;;60.75;28.35;;;0.50;99.90;;;;;;5044962;28;20053;-77